Terminal Aerodrome Forecast
Issued by NWS

Home | Current Version | Previous Version | Text Only | Print | Product List | Glossary On
Versions: 1 2 3 4 5 6 7 8 9 10 11 12 13 14 15 16 17 18 19 20 21 22 23 24 25 26 27 28 29 30 31 32 33 34 35 36 37 38 39 40
291
FTAK31 PAFA 292004 AAA
TAFAMC
TAF AMD
PAMC 292004Z 2920/3018 00000KT 1/4SM FG VV002
     FM292100 VRB03KT 1SM BR OVC002
     FM292200 VRB02KT P6SM FEW002
     FM301600 00000KT 2SM BR FEW002 FEW250=

USA.gov is the U.S. government's official web portal to all federal, state and local government web resources and services.